Time;durP1;ratioP1;P1;durP2;ratioP2;P2;SDS_P1;SDS_P2;PMS_P1;PMS_P2;Temp;Humidity;BMP_temperature;BMP_pressure;BME280_temperature;BME280_humidity;BME280_pressure;Samples;Min_cycle;Max_cycle;Signal;HPM_P1;HPM_P2
2023/09/24 00:02:07;;;;;;;7.82;2.95;;;11.70;99.90;;;;;;5005819;28;20056;-54
2023/09/24 00:04:33;;;;;;;10.00;3.25;;;11.70;99.90;;;;;;5005280;28;20041;-54
2023/09/24 00:06:58;;;;;;;9.07;3.13;;;11.50;99.90;;;;;;5005683;28;20137;-56
2023/09/24 00:09:24;;;;;;;8.38;3.15;;;11.60;99.90;;;;;;5004930;28;20423;-56
2023/09/24 00:11:49;;;;;;;8.70;3.05;;;11.60;99.90;;;;;;5005116;28;20056;-54
2023/09/24 00:14:15;;;;;;;8.35;3.05;;;11.80;99.90;;;;;;5004260;28;20614;-53
2023/09/24 00:16:41;;;;;;;11.52;3.08;;;11.60;99.90;;;;;;5006918;28;20085;-53
2023/09/24 00:19:07;;;;;;;7.43;2.58;;;11.50;99.90;;;;;;5006398;28;20037;-56
2023/09/24 00:21:32;;;;;;;9.27;2.60;;;11.60;99.90;;;;;;5005040;28;20050;-55
2023/09/24 00:23:58;;;;;;;7.20;2.60;;;11.60;99.90;;;;;;5005503;28;20045;-55
2023/09/24 00:26:24;;;;;;;7.80;3.03;;;11.70;99.90;;;;;;5004903;28;20128;-56
2023/09/24 00:28:50;;;;;;;7.38;2.80;;;11.60;99.90;;;;;;5004525;28;20417;-55
2023/09/24 00:31:16;;;;;;;8.40;2.58;;;11.70;99.90;;;;;;5002528;28;20120;-54
2023/09/24 00:33:42;;;;;;;7.32;3.05;;;11.60;99.90;;;;;;5005013;28;20495;-56
2023/09/24 00:36:07;;;;;;;10.02;3.17;;;11.70;99.90;;;;;;5004696;28;20192;-54
2023/09/24 00:38:33;;;;;;;8.55;2.80;;;11.70;99.90;;;;;;5004236;28;20041;-55
2023/09/24 00:40:59;;;;;;;7.70;2.80;;;11.80;99.90;;;;;;5004466;28;20522;-54
2023/09/24 00:43:30;;;;;;;9.68;2.67;;;11.80;99.90;;;;;;5004469;28;20278;-55
2023/09/24 00:46:00;;;;;;;8.70;2.92;;;11.80;99.90;;;;;;5005222;28;20038;-55
2023/09/24 00:48:29;;;;;;;9.82;2.63;;;11.80;99.90;;;;;;5004462;28;20046;-55
2023/09/24 00:50:59;;;;;;;10.45;2.70;;;11.80;99.90;;;;;;5005314;28;20050;-54
2023/09/24 00:53:37;;;;;;;7.72;2.90;;;11.70;99.90;;;;;;5004630;28;20038;-55
2023/09/24 00:56:04;;;;;;;13.57;2.58;;;11.80;99.90;;;;;;5002145;28;20081;-55
2023/09/24 00:58:31;;;;;;;8.98;2.60;;;11.70;99.90;;;;;;4994463;28;20038;-54
2023/09/24 01:00:59;;;;;;;7.95;2.47;;;11.60;99.90;;;;;;4985649;28;20050;-55
2023/09/24 01:03:26;;;;;;;10.40;2.97;;;11.70;99.90;;;;;;4984917;28;20046;-55
2023/09/24 01:05:52;;;;;;;10.55;2.67;;;11.70;99.90;;;;;;4985400;28;20038;-54
2023/09/24 01:08:23;;;;;;;10.20;2.50;;;11.60;99.90;;;;;;4984413;28;20050;-54
2023/09/24 01:10:49;;;;;;;9.60;2.70;;;11.60;99.90;;;;;;4984998;28;20481;-55
2023/09/24 01:13:15;;;;;;;4.90;2.42;;;11.50;99.90;;;;;;4985221;28;20249;-55
2023/09/24 01:15:44;;;;;;;7.38;2.67;;;11.60;99.90;;;;;;4984833;28;20057;-56
2023/09/24 01:18:10;;;;;;;6.43;2.85;;;11.60;99.90;;;;;;4985334;28;20180;-52
2023/09/24 01:20:36;;;;;;;12.02;3.38;;;11.40;99.90;;;;;;4993032;28;20042;-54
2023/09/24 01:23:06;;;;;;;12.27;3.35;;;11.40;99.90;;;;;;5004905;28;20045;-52
2023/09/24 01:25:35;;;;;;;7.60;2.60;;;11.40;99.90;;;;;;5005333;28;20042;-56
2023/09/24 01:28:03;;;;;;;14.48;3.17;;;11.30;99.90;;;;;;5004508;28;20057;-56
2023/09/24 01:30:30;;;;;;;8.52;3.00;;;11.30;99.90;;;;;;5004539;28;20405;-56
2023/09/24 01:32:57;;;;;;;9.73;3.10;;;11.20;99.90;;;;;;5004756;28;20143;-52
2023/09/24 01:35:27;;;;;;;7.38;3.00;;;11.30;99.90;;;;;;5003435;28;20172;-50
2023/09/24 01:37:59;;;;;;;8.25;3.38;;;11.30;99.90;;;;;;5004074;28;20160;-54
2023/09/24 01:40:27;;;;;;;9.85;3.65;;;11.30;99.90;;;;;;5002580;28;20069;-55
2023/09/24 01:42:57;;;;;;;10.85;3.25;;;11.70;99.90;;;;;;5002822;28;20054;-54
2023/09/24 01:45:24;;;;;;;8.68;3.20;;;11.30;99.90;;;;;;5004327;28;20149;-53
2023/09/24 01:47:50;;;;;;;8.18;3.63;;;11.30;99.90;;;;;;5002838;28;20073;-55
2023/09/24 01:50:16;;;;;;;9.88;4.05;;;11.30;99.90;;;;;;4996532;28;20046;-56
2023/09/24 01:52:48;;;;;;;12.88;3.70;;;11.30;99.90;;;;;;5002542;28;20038;-53
2023/09/24 01:55:15;;;;;;;8.25;3.83;;;11.30;99.90;;;;;;5003876;28;20042;-53
2023/09/24 01:57:44;;;;;;;9.32;4.05;;;11.20;99.90;;;;;;4995883;28;20046;-51
2023/09/24 02:00:23;;;;;;;10.65;4.05;;;11.30;99.90;;;;;;4984013;28;20061;-54
2023/09/24 02:03:02;;;;;;;8.48;3.50;;;11.30;99.90;;;;;;4984187;28;20042;-54
2023/09/24 02:05:32;;;;;;;6.47;3.65;;;11.40;99.90;;;;;;4983543;28;20038;-53
2023/09/24 02:07:58;;;;;;;10.60;4.15;;;11.30;99.90;;;;;;4983995;28;20092;-55
2023/09/24 02:10:24;;;;;;;8.02;4.00;;;11.30;99.90;;;;;;4984021;28;20061;-52
2023/09/24 02:12:51;;;;;;;11.02;3.90;;;11.20;99.90;;;;;;4984161;28;20046;-55
2023/09/24 02:15:20;;;;;;;9.52;4.45;;;11.20;99.90;;;;;;4983191;28;20074;-55
2023/09/24 02:17:48;;;;;;;11.02;4.05;;;11.20;99.90;;;;;;4984514;28;20046;-55
2023/09/24 02:20:20;;;;;;;10.50;4.38;;;11.20;99.90;;;;;;4984150;28;20046;-55
2023/09/24 02:22:46;;;;;;;10.10;4.20;;;11.50;99.90;;;;;;4982985;28;20057;-56
2023/09/24 02:25:14;;;;;;;9.75;4.45;;;11.10;99.90;;;;;;4992170;28;20480;-52
2023/09/24 02:27:41;;;;;;;10.02;4.22;;;11.10;99.90;;;;;;5003708;28;20049;-54
2023/09/24 02:30:10;;;;;;;9.07;4.28;;;11.10;99.90;;;;;;5002718;28;20164;-54
2023/09/24 02:32:37;;;;;;;9.88;4.15;;;11.10;99.90;;;;;;5003288;28;20108;-56
2023/09/24 02:35:03;;;;;;;7.45;4.40;;;11.10;99.90;;;;;;5003749;28;20439;-53
2023/09/24 02:37:30;;;;;;;9.95;4.60;;;11.10;99.90;;;;;;5003174;28;20054;-55
2023/09/24 02:39:55;;;;;;;8.38;4.50;;;11.10;99.90;;;;;;5002778;28;20046;-55
2023/09/24 02:42:21;;;;;;;9.45;4.80;;;11.10;99.90;;;;;;5002018;28;20543;-55
2023/09/24 02:44:48;;;;;;;11.98;4.55;;;11.10;99.90;;;;;;5003490;28;20081;-55
2023/09/24 02:47:15;;;;;;;10.07;4.45;;;11.00;99.90;;;;;;5002084;28;20054;-52
2023/09/24 02:49:41;;;;;;;6.88;4.57;;;11.00;99.90;;;;;;5003450;28;20042;-55
2023/09/24 02:52:08;;;;;;;8.40;4.43;;;11.00;99.90;;;;;;5002441;28;20061;-53
2023/09/24 02:54:34;;;;;;;11.10;4.80;;;11.30;99.90;;;;;;5003665;28;20049;-54
2023/09/24 02:56:59;;;;;;;8.40;4.63;;;11.60;99.90;;;;;;4996738;28;20042;-54
2023/09/24 02:59:25;;;;;;;11.40;4.68;;;11.20;99.90;;;;;;4987199;28;20576;-54
2023/09/24 03:01:52;;;;;;;11.80;4.97;;;11.20;99.90;;;;;;4983422;28;20049;-53
2023/09/24 03:04:18;;;;;;;9.30;5.40;;;10.90;99.90;;;;;;4983445;28;20046;-54
2023/09/24 03:06:45;;;;;;;13.00;6.15;;;11.30;99.90;;;;;;4982292;28;20042;-56
2023/09/24 03:09:11;;;;;;;11.40;6.57;;;10.90;99.90;;;;;;4983309;28;20105;-55
2023/09/24 03:11:37;;;;;;;11.55;6.60;;;10.90;99.90;;;;;;4983588;28;20038;-53
2023/09/24 03:14:03;;;;;;;9.80;5.97;;;10.80;99.90;;;;;;4982702;28;20097;-55
2023/09/24 03:16:29;;;;;;;13.18;6.95;;;10.90;99.90;;;;;;4983168;28;20038;-55
2023/09/24 03:18:55;;;;;;;11.15;6.35;;;10.90;99.90;;;;;;4983336;28;20237;-55
2023/09/24 03:21:21;;;;;;;10.73;6.28;;;10.80;99.90;;;;;;4983341;28;20544;-54
2023/09/24 03:23:46;;;;;;;10.43;6.50;;;10.70;99.90;;;;;;4981945;28;20045;-55
2023/09/24 03:26:15;;;;;;;8.23;5.70;;;11.10;99.90;;;;;;4983533;28;20070;-55
2023/09/24 03:28:43;;;;;;;10.00;6.10;;;11.00;99.90;;;;;;4983236;28;20046;-51
2023/09/24 03:31:15;;;;;;;9.98;6.32;;;10.80;99.90;;;;;;4983243;28;20127;-56
2023/09/24 03:33:41;;;;;;;9.98;6.55;;;10.80;99.90;;;;;;4982241;28;20046;-55
2023/09/24 03:36:10;;;;;;;14.90;6.30;;;10.80;99.90;;;;;;4983102;28;20050;-54
2023/09/24 03:38:36;;;;;;;10.75;6.53;;;10.70;99.90;;;;;;4982425;28;20038;-53
2023/09/24 03:41:03;;;;;;;9.48;7.13;;;10.70;99.90;;;;;;4982293;28;20109;-54
2023/09/24 03:43:32;;;;;;;9.88;7.05;;;10.70;99.90;;;;;;4982990;28;20054;-54
2023/09/24 03:45:57;;;;;;;10.02;7.25;;;10.70;99.90;;;;;;4983562;28;20085;-54
2023/09/24 03:48:23;;;;;;;10.68;7.18;;;10.70;99.90;;;;;;4982269;28;20050;-55
2023/09/24 03:50:53;;;;;;;12.05;6.43;;;11.10;99.90;;;;;;4983417;28;20050;-55
2023/09/24 03:53:19;;;;;;;18.23;7.05;;;10.70;99.90;;;;;;4982311;28;20255;-53
2023/09/24 03:55:45;;;;;;;29.77;8.25;;;10.80;99.90;;;;;;4983321;28;20042;-54
2023/09/24 03:58:12;;;;;;;63.50;8.07;;;10.70;99.90;;;;;;4992508;28;20092;-55
2023/09/24 04:00:37;;;;;;;60.13;6.93;;;10.70;99.90;;;;;;5003135;28;20396;-54
2023/09/24 04:03:03;;;;;;;43.63;6.88;;;10.60;99.90;;;;;;5003149;28;20043;-54
2023/09/24 04:05:30;;;;;;;43.53;7.00;;;10.60;99.90;;;;;;5002332;28;20054;-53
2023/09/24 04:07:56;;;;;;;32.15;7.03;;;10.50;99.90;;;;;;5002224;28;20116;-54
2023/09/24 04:10:28;;;;;;;25.55;7.43;;;10.60;99.90;;;;;;5000782;28;20074;-53
2023/09/24 04:12:54;;;;;;;39.63;7.85;;;10.40;99.90;;;;;;5004666;28;20089;-54
2023/09/24 04:15:28;;;;;;;24.13;7.95;;;10.30;99.90;;;;;;5005332;28;20144;-52
2023/09/24 04:17:58;;;;;;;27.30;7.78;;;10.40;99.90;;;;;;5005998;28;20050;-53
2023/09/24 04:20:26;;;;;;;25.02;7.63;;;10.40;99.90;;;;;;5005935;28;21038;-55
2023/09/24 04:22:52;;;;;;;27.55;8.05;;;10.30;99.90;;;;;;5004432;28;20125;-51
2023/09/24 04:25:21;;;;;;;33.38;8.60;;;10.30;99.90;;;;;;5005508;28;20134;-56
2023/09/24 04:27:48;;;;;;;18.02;8.27;;;10.30;99.90;;;;;;5005853;28;20074;-54
2023/09/24 04:30:17;;;;;;;19.75;8.38;;;10.30;99.90;;;;;;5005260;28;20403;-56
2023/09/24 04:32:49;;;;;;;33.53;9.00;;;10.20;99.90;;;;;;5005540;28;20092;-53
2023/09/24 04:35:19;;;;;;;26.00;8.50;;;10.20;99.90;;;;;;5005662;28;20081;-54
2023/09/24 04:37:45;;;;;;;30.15;9.13;;;10.10;99.90;;;;;;5004145;28;20041;-55
2023/09/24 04:40:11;;;;;;;33.22;9.48;;;10.50;99.90;;;;;;5005367;28;20050;-55
2023/09/24 04:42:37;;;;;;;28.90;9.38;;;10.10;99.90;;;;;;5005338;28;20596;-53
2023/09/24 04:45:06;;;;;;;30.52;9.90;;;10.30;99.90;;;;;;5006131;28;20467;-55
2023/09/24 04:47:31;;;;;;;32.03;10.07;;;10.00;99.90;;;;;;5005168;28;20057;-52
2023/09/24 04:49:57;;;;;;;34.13;10.35;;;10.20;99.90;;;;;;5005966;28;20037;-55
2023/09/24 04:52:23;;;;;;;39.65;11.40;;;10.00;99.90;;;;;;5004268;28;20077;-52
2023/09/24 04:54:48;;;;;;;31.95;11.02;;;10.00;99.90;;;;;;5004658;28;20137;-55
2023/09/24 04:57:14;;;;;;;24.27;11.73;;;10.10;99.90;;;;;;4999339;28;20080;-55
2023/09/24 04:59:40;;;;;;;48.50;12.73;;;10.00;99.90;;;;;;4987695;28;20038;-53
2023/09/24 05:02:05;;;;;;;39.63;12.40;;;10.10;99.90;;;;;;4985422;28;20497;-53
2023/09/24 05:04:32;;;;;;;49.67;13.13;;;10.00;99.90;;;;;;4985286;28;20034;-55
2023/09/24 05:06:58;;;;;;;29.23;13.48;;;10.10;99.90;;;;;;4984622;28;20063;-52
2023/09/24 05:09:23;;;;;;;34.58;14.50;;;10.00;99.90;;;;;;4984466;28;20061;-54
2023/09/24 05:11:49;;;;;;;68.72;14.15;;;10.10;99.90;;;;;;4985246;28;20503;-52
2023/09/24 05:14:15;;;;;;;37.92;14.32;;;10.10;99.90;;;;;;4984310;28;20178;-55
2023/09/24 05:16:40;;;;;;;43.28;14.73;;;10.10;99.90;;;;;;4985582;28;20528;-55
2023/09/24 05:19:07;;;;;;;36.53;14.13;;;10.10;99.90;;;;;;4985003;28;20046;-53
2023/09/24 05:21:33;;;;;;;45.58;15.18;;;10.00;99.90;;;;;;4983989;28;20141;-57
2023/09/24 05:23:58;;;;;;;32.25;15.02;;;10.10;99.90;;;;;;4983715;28;20051;-54
2023/09/24 05:26:24;;;;;;;30.88;15.75;;;10.10;99.90;;;;;;4983423;28;20045;-54
2023/09/24 05:28:49;;;;;;;31.38;15.48;;;10.10;99.90;;;;;;4985164;28;20058;-55
2023/09/24 05:31:18;;;;;;;30.60;15.48;;;10.10;99.90;;;;;;4983430;28;20046;-51
2023/09/24 05:33:47;;;;;;;25.23;14.60;;;10.00;99.90;;;;;;4984958;28;20093;-55
2023/09/24 05:36:13;;;;;;;28.30;15.98;;;10.10;99.90;;;;;;4983789;28;20105;-53
2023/09/24 05:38:38;;;;;;;24.92;15.48;;;10.30;99.90;;;;;;4986962;28;20089;-55
2023/09/24 05:41:05;;;;;;;27.60;16.73;;;10.20;99.90;;;;;;4999398;28;20058;-52
2023/09/24 05:43:31;;;;;;;25.25;16.33;;;10.10;99.90;;;;;;5004817;28;20056;-54
2023/09/24 05:45:57;;;;;;;26.77;16.38;;;10.20;99.90;;;;;;5004303;28;20507;-55
2023/09/24 05:48:23;;;;;;;25.83;16.63;;;10.10;99.90;;;;;;5003152;28;20049;-51
2023/09/24 05:50:48;;;;;;;26.42;16.85;;;10.20;99.90;;;;;;5004598;28;20064;-54
2023/09/24 05:53:15;;;;;;;25.08;17.25;;;10.20;99.90;;;;;;5002404;28;20072;-53
2023/09/24 05:55:54;;;;;;;24.85;17.00;;;10.30;99.90;;;;;;5002404;28;20146;-53
2023/09/24 05:58:20;;;;;;;25.45;17.77;;;10.30;99.90;;;;;;4993078;28;20529;-55
2023/09/24 06:00:47;;;;;;;25.90;16.40;;;10.40;99.90;;;;;;4985226;28;20057;-54
2023/09/24 06:03:14;;;;;;;24.83;16.85;;;11.00;99.90;;;;;;4983477;28;20093;-55
2023/09/24 06:05:40;;;;;;;24.35;16.45;;;10.40;99.90;;;;;;4986723;28;20046;-55
2023/09/24 06:08:06;;;;;;;23.90;16.52;;;10.80;99.90;;;;;;5002749;28;20061;-53
2023/09/24 06:10:34;;;;;;;24.23;16.88;;;10.50;99.90;;;;;;5004507;28;20439;-54
2023/09/24 06:13:00;;;;;;;21.52;16.08;;;10.60;99.90;;;;;;5003415;28;20061;-53
2023/09/24 06:15:26;;;;;;;22.63;16.15;;;10.50;99.90;;;;;;5003686;28;20050;-55
2023/09/24 06:17:52;;;;;;;24.02;16.70;;;10.60;99.90;;;;;;5002478;28;20535;-53
2023/09/24 06:20:18;;;;;;;24.98;17.02;;;11.00;99.90;;;;;;5001225;28;20080;-53
2023/09/24 06:22:45;;;;;;;24.15;16.85;;;10.70;99.90;;;;;;5001592;28;20042;-55
2023/09/24 06:25:12;;;;;;;25.08;16.20;;;10.80;99.90;;;;;;5001121;28;20129;-50
2023/09/24 06:27:40;;;;;;;19.30;14.80;;;10.80;99.90;;;;;;5002737;28;20068;-55
2023/09/24 06:30:08;;;;;;;23.40;15.32;;;10.80;99.90;;;;;;5000826;28;20112;-51
2023/09/24 06:32:35;;;;;;;23.23;15.98;;;10.80;99.90;;;;;;5001659;28;20108;-53
2023/09/24 06:35:01;;;;;;;23.40;15.68;;;10.90;99.90;;;;;;5002713;28;20123;-55
2023/09/24 06:37:26;;;;;;;21.63;15.65;;;10.90;99.90;;;;;;5000686;28;20545;-54
2023/09/24 06:39:52;;;;;;;21.45;13.52;;;10.90;99.90;;;;;;5002181;28;20499;-53
2023/09/24 06:42:17;;;;;;;21.02;13.93;;;10.90;99.90;;;;;;4997637;28;20041;-54
2023/09/24 06:44:44;;;;;;;20.30;13.40;;;11.00;99.90;;;;;;4992984;28;20077;-54
2023/09/24 06:47:10;;;;;;;20.65;13.85;;;11.10;99.90;;;;;;4991516;28;20053;-54
2023/09/24 06:49:37;;;;;;;21.40;13.30;;;11.10;99.90;;;;;;4995550;28;20178;-53
2023/09/24 06:52:03;;;;;;;18.27;12.93;;;11.10;99.90;;;;;;5003467;28;20041;-55
2023/09/24 06:54:29;;;;;;;21.25;13.27;;;11.10;99.90;;;;;;4996929;28;20053;-53
2023/09/24 06:56:54;;;;;;;16.90;12.63;;;11.20;99.90;;;;;;4990179;28;20045;-56
2023/09/24 06:59:20;;;;;;;17.20;11.75;;;11.30;99.90;;;;;;4987724;28;20042;-52
2023/09/24 07:01:45;;;;;;;16.10;11.80;;;11.30;99.90;;;;;;4990021;28;20038;-53
2023/09/24 07:04:11;;;;;;;16.90;11.73;;;11.50;99.90;;;;;;5003509;28;20096;-54
2023/09/24 07:06:39;;;;;;;14.60;10.90;;;11.30;99.90;;;;;;5001382;28;20451;-54
2023/09/24 07:09:05;;;;;;;14.23;10.88;;;11.50;99.90;;;;;;4994022;28;20053;-53
2023/09/24 07:11:34;;;;;;;16.67;10.02;;;11.50;99.90;;;;;;4992756;28;20038;-52
2023/09/24 07:14:01;;;;;;;15.85;9.98;;;11.70;99.90;;;;;;4988155;28;20058;-53
2023/09/24 07:16:27;;;;;;;12.32;10.13;;;11.80;99.90;;;;;;4982542;28;20127;-54
2023/09/24 07:18:54;;;;;;;14.20;10.13;;;11.80;99.90;;;;;;4983905;28;20596;-50
2023/09/24 07:21:21;;;;;;;12.70;10.05;;;11.80;99.90;;;;;;4983131;28;20093;-54
2023/09/24 07:23:49;;;;;;;15.00;9.70;;;11.80;99.90;;;;;;4982356;28;20042;-53
2023/09/24 07:26:14;;;;;;;13.68;9.40;;;12.10;99.90;;;;;;4983589;28;20055;-55
2023/09/24 07:28:41;;;;;;;16.45;9.45;;;12.40;99.90;;;;;;4983323;28;20042;-52
2023/09/24 07:31:13;;;;;;;13.80;9.90;;;12.00;99.90;;;;;;4991960;28;20135;-54
2023/09/24 07:33:39;;;;;;;12.45;9.30;;;12.10;99.90;;;;;;4984324;28;20086;-55
2023/09/24 07:36:05;;;;;;;16.17;10.15;;;12.20;99.90;;;;;;4982907;28;20581;-56
2023/09/24 07:38:31;;;;;;;13.45;9.65;;;12.10;99.90;;;;;;4990632;28;20053;-52
2023/09/24 07:40:57;;;;;;;16.88;9.40;;;12.30;99.90;;;;;;4986300;28;20141;-54
2023/09/24 07:43:22;;;;;;;12.07;8.40;;;12.20;99.90;;;;;;4982756;28;20054;-54
2023/09/24 07:45:48;;;;;;;13.30;8.45;;;12.40;99.90;;;;;;4985655;28;20112;-55
2023/09/24 07:48:14;;;;;;;13.85;8.65;;;12.40;99.90;;;;;;4994142;28;20587;-53
2023/09/24 07:50:41;;;;;;;12.63;8.98;;;12.40;99.90;;;;;;4997343;28;20047;-54
2023/09/24 07:53:06;;;;;;;12.88;9.23;;;12.60;99.90;;;;;;4985797;28;20061;-55
2023/09/24 07:55:32;;;;;;;11.88;9.38;;;12.70;99.90;;;;;;4988024;28;20042;-54
2023/09/24 07:57:58;;;;;;;13.13;8.02;;;12.70;99.90;;;;;;4997064;28;20752;-53
2023/09/24 08:00:23;;;;;;;14.15;8.68;;;12.80;99.90;;;;;;4986480;28;20042;-54
2023/09/24 08:02:49;;;;;;;13.35;8.40;;;12.90;99.90;;;;;;4985841;28;20050;-53
2023/09/24 08:05:15;;;;;;;13.65;8.23;;;13.00;99.90;;;;;;4985855;28;20042;-51
2023/09/24 08:07:40;;;;;;;13.98;8.65;;;13.10;99.90;;;;;;4986160;28;20491;-50
2023/09/24 08:10:06;;;;;;;14.93;7.82;;;13.50;99.90;;;;;;4986123;28;20149;-55
2023/09/24 08:12:32;;;;;;;13.05;8.25;;;13.30;99.90;;;;;;4986615;28;20428;-54
2023/09/24 08:14:58;;;;;;;11.77;7.65;;;13.20;99.90;;;;;;4987117;28;20058;-55
2023/09/24 08:17:23;;;;;;;13.55;7.93;;;13.40;99.90;;;;;;4985095;28;20082;-54
2023/09/24 08:19:49;;;;;;;11.65;7.50;;;13.70;99.90;;;;;;4985328;28;20741;-55
2023/09/24 08:22:15;;;;;;;12.32;7.25;;;13.50;99.90;;;;;;4985566;28;20053;-53
2023/09/24 08:24:41;;;;;;;13.10;7.43;;;13.70;99.90;;;;;;4985872;28;20078;-53
2023/09/24 08:27:06;;;;;;;10.25;6.78;;;13.80;99.90;;;;;;4986214;28;20177;-55
2023/09/24 08:29:33;;;;;;;11.40;6.97;;;13.70;99.90;;;;;;4985957;28;20045;-54
2023/09/24 08:31:59;;;;;;;11.77;6.97;;;13.80;99.90;;;;;;4988550;28;20034;-54
2023/09/24 08:34:26;;;;;;;11.20;6.75;;;13.90;99.90;;;;;;4995269;28;20092;-55
2023/09/24 08:36:52;;;;;;;10.98;7.10;;;14.00;99.90;;;;;;4991098;28;20117;-52
2023/09/24 08:39:18;;;;;;;11.10;6.53;;;14.20;99.90;;;;;;4993995;28;20158;-55
2023/09/24 08:41:44;;;;;;;11.93;7.03;;;14.20;99.90;;;;;;4985112;28;20042;-59
2023/09/24 08:44:14;;;;;;;11.32;6.07;;;14.30;99.90;;;;;;4985283;28;20038;-56
2023/09/24 08:46:42;;;;;;;14.45;6.57;;;14.40;99.90;;;;;;4984890;28;20178;-54
2023/09/24 08:49:08;;;;;;;10.75;5.85;;;14.40;99.90;;;;;;4984894;28;20061;-53
2023/09/24 08:51:34;;;;;;;15.85;6.10;;;14.50;99.90;;;;;;4984285;28;20039;-54
2023/09/24 08:54:00;;;;;;;11.65;6.25;;;14.60;99.90;;;;;;4984912;28;20125;-53
2023/09/24 08:56:26;;;;;;;11.93;5.43;;;14.70;99.90;;;;;;4993334;28;20129;-55
2023/09/24 08:58:53;;;;;;;15.13;5.90;;;14.90;99.90;;;;;;5002318;28;20172;-54
2023/09/24 09:01:18;;;;;;;13.85;5.63;;;15.40;99.90;;;;;;5003029;28;20064;-55
2023/09/24 09:03:44;;;;;;;9.02;4.75;;;15.80;99.90;;;;;;5004883;28;20515;-55
2023/09/24 09:06:12;;;;;;;8.88;4.50;;;16.10;99.90;;;;;;5003006;28;20527;-51
2023/09/24 09:08:51;;;;;;;13.00;4.90;;;16.20;99.90;;;;;;4985827;28;20074;-54
2023/09/24 09:11:19;;;;;;;16.65;5.03;;;16.60;99.90;;;;;;4985573;28;20046;-53
2023/09/24 09:13:48;;;;;;;6.60;3.90;;;16.90;99.90;;;;;;4985104;28;20054;-55
2023/09/24 09:16:16;;;;;;;8.10;4.50;;;17.10;99.90;;;;;;4985200;28;20137;-55
2023/09/24 09:18:42;;;;;;;8.48;4.07;;;17.10;99.90;;;;;;4987239;28;20046;-56
2023/09/24 09:21:07;;;;;;;9.82;4.63;;;17.10;99.90;;;;;;4996209;28;20064;-54
2023/09/24 09:23:36;;;;;;;7.20;3.67;;;17.20;99.90;;;;;;4985308;28;20069;-55
2023/09/24 09:26:01;;;;;;;8.05;3.88;;;17.30;99.90;;;;;;4983893;28;20046;-56
2023/09/24 09:28:30;;;;;;;7.13;3.60;;;17.60;99.90;;;;;;4984111;28;20046;-54
2023/09/24 09:31:05;;;;;;;10.18;3.53;;;17.70;99.90;;;;;;4985406;28;20409;-56
2023/09/24 09:33:40;;;;;;;5.97;3.22;;;17.60;99.90;;;;;;4984612;28;20061;-56
2023/09/24 09:36:21;;;;;;;7.55;3.00;;;17.80;99.90;;;;;;4984491;28;20057;-56
2023/09/24 09:38:53;;;;;;;8.77;3.10;;;18.00;99.90;;;;;;4985077;28;20046;-56
2023/09/24 09:41:20;;;;;;;5.65;3.10;;;18.10;99.90;;;;;;4991861;28;20054;-56
2023/09/24 09:43:47;;;;;;;7.80;3.40;;;18.20;99.90;;;;;;4995155;28;20117;-56
2023/09/24 09:46:18;;;;;;;7.13;3.25;;;18.10;99.90;;;;;;4997358;28;20081;-56
2023/09/24 09:49:01;;;;;;;5.80;2.90;;;18.00;99.90;;;;;;4994187;28;20042;-53
2023/09/24 09:51:30;;;;;;;6.07;2.70;;;18.00;99.90;;;;;;4984412;28;20050;-56
2023/09/24 09:54:06;;;;;;;8.65;3.22;;;18.10;99.90;;;;;;4984946;28;20042;-55
2023/09/24 09:56:35;;;;;;;7.90;3.28;;;18.30;99.90;;;;;;4994528;28;20096;-55
2023/09/24 09:59:02;;;;;;;7.40;3.42;;;18.40;99.90;;;;;;4997756;28;20057;-55
2023/09/24 10:01:28;;;;;;;4.35;2.83;;;18.30;99.90;;;;;;4995071;28;20050;-56
2023/09/24 10:03:55;;;;;;;6.30;3.13;;;18.20;99.30;;;;;;4993772;28;20541;-55
2023/09/24 10:06:22;;;;;;;6.50;3.17;;;18.30;99.80;;;;;;4992652;28;20432;-56
2023/09/24 10:08:49;;;;;;;8.90;3.25;;;18.30;99.90;;;;;;4997299;28;20058;-53
2023/09/24 10:11:34;;;;;;;6.18;2.67;;;18.30;99.90;;;;;;4996807;28;21066;-57
2023/09/24 10:14:01;;;;;;;6.68;2.78;;;18.40;98.60;;;;;;4968014;28;20414;-54
2023/09/24 10:16:27;;;;;;;7.47;2.90;;;18.30;99.40;;;;;;4996832;28;20100;-56
2023/09/24 10:19:04;;;;;;;4.90;2.22;;;18.30;99.90;;;;;;5001780;28;20072;-53
2023/09/24 10:21:33;;;;;;;7.30;2.58;;;18.40;99.60;;;;;;4999878;28;20874;-56
2023/09/24 10:24:14;;;;;;;5.72;2.63;;;18.40;98.10;;;;;;4984589;28;20042;-56
2023/09/24 10:26:49;;;;;;;6.20;2.30;;;18.50;98.70;;;;;;5002690;28;20128;-56
2023/09/24 10:29:19;;;;;;;6.57;2.70;;;18.70;99.30;;;;;;5001723;28;20408;-55
2023/09/24 10:32:10;;;;;;;5.47;2.30;;;18.90;97.10;;;;;;5001548;28;20042;-56
2023/09/24 10:34:54;;;;;;;6.78;2.20;;;18.90;97.50;;;;;;5002022;28;20182;-54
2023/09/24 10:37:37;;;;;;;4.63;2.10;;;19.00;96.10;;;;;;5001664;28;20420;-56
2023/09/24 10:40:05;;;;;;;7.28;2.58;;;19.00;96.40;;;;;;5002218;28;20081;-56
2023/09/24 10:42:37;;;;;;;7.53;2.17;;;18.90;95.90;;;;;;5002192;28;20378;-56
2023/09/24 10:45:10;;;;;;;4.63;2.20;;;18.90;97.00;;;;;;4996093;28;20528;-55
2023/09/24 10:47:37;;;;;;;5.65;1.90;;;19.00;95.90;;;;;;4984733;28;20061;-54
2023/09/24 10:50:07;;;;;;;7.25;1.90;;;19.00;95.90;;;;;;4982740;28;20054;-55
2023/09/24 10:52:54;;;;;;;4.63;1.80;;;19.10;95.30;;;;;;4982985;28;20039;-53
2023/09/24 10:55:36;;;;;;;5.95;1.80;;;19.00;95.60;;;;;;4982195;28;20066;-57
2023/09/24 10:58:13;;;;;;;6.35;1.88;;;19.10;95.70;;;;;;4993082;28;20064;-55
2023/09/24 11:00:41;;;;;;;3.83;1.58;;;19.00;95.40;;;;;;4994165;28;20133;-56
2023/09/24 11:03:13;;;;;;;6.78;1.80;;;19.00;96.00;;;;;;5002378;28;20045;-58
2023/09/24 11:05:42;;;;;;;6.95;2.15;;;19.10;96.30;;;;;;5000796;28;20621;-55
2023/09/24 11:08:08;;;;;;;7.65;1.83;;;19.20;96.80;;;;;;5000917;28;20050;-54
2023/09/24 11:10:34;;;;;;;5.20;1.73;;;19.30;97.20;;;;;;5000993;28;20050;-57
2023/09/24 11:13:03;;;;;;;5.00;1.70;;;19.50;96.00;;;;;;5003919;28;20048;-56
2023/09/24 11:15:37;;;;;;;4.65;1.58;;;19.50;95.60;;;;;;5003006;28;20066;-57
2023/09/24 11:18:03;;;;;;;4.43;1.75;;;19.50;95.70;;;;;;5004054;28;20108;-56
2023/09/24 11:20:31;;;;;;;5.00;2.13;;;19.50;95.40;;;;;;5003293;28;20482;-57
2023/09/24 11:23:09;;;;;;;5.25;1.63;;;19.40;95.30;;;;;;5004223;28;20129;-55
2023/09/24 11:25:35;;;;;;;5.35;1.70;;;19.50;94.70;;;;;;5006688;28;20050;-55
2023/09/24 11:28:03;;;;;;;6.32;1.83;;;19.40;94.60;;;;;;5006862;28;20042;-57
2023/09/24 11:30:46;;;;;;;5.68;1.95;;;19.40;95.10;;;;;;5007003;28;20416;-57
2023/09/24 11:33:20;;;;;;;7.80;1.73;;;19.40;95.70;;;;;;5007073;28;20779;-58
2023/09/24 11:35:46;;;;;;;4.93;1.70;;;19.50;95.60;;;;;;5004401;28;20054;-57
2023/09/24 11:38:12;;;;;;;4.28;1.70;;;19.60;95.30;;;;;;4988806;28;20619;-57
2023/09/24 11:40:39;;;;;;;3.83;1.55;;;19.60;94.60;;;;;;4986686;28;20047;-55
2023/09/24 11:43:15;;;;;;;5.72;1.80;;;19.60;94.70;;;;;;4987677;28;20057;-58
2023/09/24 11:45:48;;;;;;;7.32;1.75;;;19.70;94.50;;;;;;4985722;28;20132;-56
2023/09/24 11:48:19;;;;;;;6.93;1.90;;;19.80;94.60;;;;;;4987692;28;20129;-56
2023/09/24 11:50:55;;;;;;;5.70;1.80;;;19.90;94.30;;;;;;4988682;28;20068;-55
2023/09/24 11:53:23;;;;;;;4.50;1.60;;;19.90;94.70;;;;;;4985758;28;20117;-57
2023/09/24 11:55:54;;;;;;;4.57;1.60;;;19.90;94.60;;;;;;4991608;28;20093;-54
2023/09/24 11:58:26;;;;;;;5.47;1.75;;;19.90;95.10;;;;;;4987727;28;20064;-57
2023/09/24 12:00:55;;;;;;;4.95;1.58;;;19.90;94.70;;;;;;5004168;28;20042;-56
2023/09/24 12:03:21;;;;;;;7.35;1.60;;;19.80;95.20;;;;;;5004116;28;20042;-56
2023/09/24 12:05:47;;;;;;;4.78;1.50;;;19.90;95.90;;;;;;4997870;28;20050;-56
2023/09/24 12:08:13;;;;;;;6.03;1.85;;;20.00;94.00;;;;;;4995771;28;20726;-56
2023/09/24 12:10:41;;;;;;;5.72;1.70;;;20.00;93.50;;;;;;4984104;28;20039;-55
2023/09/24 12:13:10;;;;;;;5.72;1.60;;;19.80;94.30;;;;;;4996987;28;20042;-56
2023/09/24 12:15:36;;;;;;;4.63;1.38;;;19.70;93.80;;;;;;5005234;28;20061;-53
2023/09/24 12:18:04;;;;;;;4.00;1.48;;;19.60;94.20;;;;;;5005807;28;20046;-56
2023/09/24 12:20:31;;;;;;;3.08;1.23;;;19.70;93.50;;;;;;4988834;28;20054;-57
2023/09/24 12:22:59;;;;;;;5.70;1.60;;;19.60;94.20;;;;;;4986825;28;20054;-54
2023/09/24 12:25:24;;;;;;;4.55;1.70;;;19.60;94.30;;;;;;4985443;28;20557;-56
2023/09/24 12:27:50;;;;;;;4.10;1.52;;;19.60;94.30;;;;;;4985619;28;20054;-58
2023/09/24 12:30:16;;;;;;;4.28;1.60;;;19.70;93.80;;;;;;4987144;28;20048;-55
2023/09/24 12:32:42;;;;;;;4.75;1.63;;;19.60;94.20;;;;;;5002951;28;20048;-56
2023/09/24 12:35:11;;;;;;;7.43;1.90;;;19.50;94.50;;;;;;5004008;28;20419;-56
2023/09/24 12:37:41;;;;;;;2.80;1.20;;;19.50;95.30;;;;;;5004073;28;20072;-58
2023/09/24 12:40:08;;;;;;;5.03;1.77;;;19.70;94.40;;;;;;5005451;28;20133;-57
2023/09/24 12:42:36;;;;;;;5.38;1.70;;;19.90;94.90;;;;;;5005105;28;20439;-57